Fascination — C6FM9 — position and weather

sailwx.info

Track history (hours):
 
Tides and Currents Weather Stations Pressure Air Temp Water Temp Dewpoint Dewpoint Depression Visibility Wind Speed Wind Dir Waves Ship Positions

Fascination

Operator: Carnival Cruise Lines

Last reported at 2017-Jan-19 03:00 UTC. Time now 2017-Jan-19 21:20 UTC.
Position N 13°18' W 060°30'.

Type: Ship. MMSI: 309682000.

Wind from 040 at 19 knots

Barometer 1020.3 mb
Air temperature 25.0 ° C
Visibility: greater than 10.8 NM
Dewpoint 20.5 ° C
Water temperature 26.0 ° C

Date/timePositionNaut miles runAvg speedWind from/ knotsBaromVisibWave heightAir tempDewpointWater temp
2017-Jan-19 03:00N 13°18' W 060°30'42 1.8 040 / 191020.310.8 25.020.526.0
2017-Jan-18 03:00N 14°00' W 060°36'34212.3 230 / 191020.310.8 25.018.826.0
2017-Jan-16 23:19N 18°05' W 064°44'911.1
2017-Jan-16 22:31N 18°10' W 064°51'8 0.7
2017-Jan-16 10:05N 18°17' W 064°56'65 9.9
2017-Jan-16 03:33N 18°36' W 066°01'1010.1
2017-Jan-16 02:33N 18°28' W 066°08'1 1.0
2017-Jan-16 01:32N 18°28' W 066°07'0 0.0
2017-Jan-16 00:29N 18°28' W 066°07'0 0.0
2017-Jan-15 23:31N 18°28' W 066°07'0 0.0
2017-Jan-15 22:31N 18°28' W 066°07'0 0.0
2017-Jan-15 21:31N 18°28' W 066°07'0 0.0
2017-Jan-15 20:33N 18°28' W 066°07'0 0.0
2017-Jan-15 19:33N 18°28' W 066°07'0 0.0
2017-Jan-15 18:32N 18°28' W 066°07'0 0.0
2017-Jan-15 17:32N 18°28' W 066°07'0 0.0
2017-Jan-15 16:31N 18°28' W 066°07'0 0.0
2017-Jan-15 15:31N 18°28' W 066°07'0 0.0
2017-Jan-15 14:34N 18°28' W 066°07'0 0.0
2017-Jan-15 13:30N 18°28' W 066°07'0 0.0
2017-Jan-15 12:27N 18°28' W 066°07'0 0.0
2017-Jan-15 11:29N 18°28' W 066°07'0 0.2
2017-Jan-15 10:33N 18°28' W 066°07'7 6.8
2017-Jan-15 09:33N 18°34' W 066°04'6912.6
2017-Jan-15 04:05N 18°10' W 064°56'10 9.0
2017-Jan-15 03:00N 18°12' W 065°06'8824.5 040 / 171020.310.8 24.019.426.0
2017-Jan-14 23:24N 18°02' W 063°34'1415.9
2017-Jan-14 22:30N 18°01' W 063°19'1515.0
2017-Jan-14 21:32N 18°00' W 063°04'16 0.9
2017-Jan-14 03:32N 17°54' W 063°19'82 4.4
2017-Jan-13 09:05N 16°46' W 062°33'917.1
2017-Jan-13 08:33N 16°38' W 062°29'  
2017-Jan-09 23:10N 18°05' W 064°44'711.6
2017-Jan-09 22:34N 18°09' W 064°50'1110.8
2017-Jan-09 21:33N 18°19' W 064°55'1 0.1
2017-Jan-09 10:15N 18°18' W 064°55'  
Track history (hours):
 
Tides and Currents Weather Stations Pressure Air Temp Water Temp Dewpoint Dewpoint Depression Visibility Wind Speed Wind Dir Waves Ship Positions

Fascination

Operator: Carnival Cruise Lines

Last reported at 2017-Jan-19 03:00 UTC. Time now 2017-Jan-19 21:20 UTC.
Position N 13°18' W 060°30'.

Type: Ship. MMSI: 309682000.

Wind from 040 at 19 knots

Barometer 1020.3 mb
Air temperature 25.0 ° C
Visibility: greater than 10.8 NM
Dewpoint 20.5 ° C
Water temperature 26.0 ° C

Date/timePositionNaut miles runAvg speedWind from/ knotsBaromVisibWave heightAir tempDewpointWater temp
2017-Jan-19 03:00N 13°18' W 060°30'42 1.8 040 / 191020.310.8 25.020.526.0
2017-Jan-18 03:00N 14°00' W 060°36'34212.3 230 / 191020.310.8 25.018.826.0
2017-Jan-16 23:19N 18°05' W 064°44'911.1
2017-Jan-16 22:31N 18°10' W 064°51'8 0.7
2017-Jan-16 10:05N 18°17' W 064°56'65 9.9
2017-Jan-16 03:33N 18°36' W 066°01'1010.1
2017-Jan-16 02:33N 18°28' W 066°08'1 1.0
2017-Jan-16 01:32N 18°28' W 066°07'0 0.0
2017-Jan-16 00:29N 18°28' W 066°07'0 0.0
2017-Jan-15 23:31N 18°28' W 066°07'0 0.0
2017-Jan-15 22:31N 18°28' W 066°07'0 0.0
2017-Jan-15 21:31N 18°28' W 066°07'0 0.0
2017-Jan-15 20:33N 18°28' W 066°07'0 0.0
2017-Jan-15 19:33N 18°28' W 066°07'0 0.0
2017-Jan-15 18:32N 18°28' W 066°07'0 0.0
2017-Jan-15 17:32N 18°28' W 066°07'0 0.0
2017-Jan-15 16:31N 18°28' W 066°07'0 0.0
2017-Jan-15 15:31N 18°28' W 066°07'0 0.0
2017-Jan-15 14:34N 18°28' W 066°07'0 0.0
2017-Jan-15 13:30N 18°28' W 066°07'0 0.0
2017-Jan-15 12:27N 18°28' W 066°07'0 0.0
2017-Jan-15 11:29N 18°28' W 066°07'0 0.2
2017-Jan-15 10:33N 18°28' W 066°07'7 6.8
2017-Jan-15 09:33N 18°34' W 066°04'6912.6
2017-Jan-15 04:05N 18°10' W 064°56'10 9.0
2017-Jan-15 03:00N 18°12' W 065°06'8824.5 040 / 171020.310.8 24.019.426.0
2017-Jan-14 23:24N 18°02' W 063°34'1415.9
2017-Jan-14 22:30N 18°01' W 063°19'1515.0
2017-Jan-14 21:32N 18°00' W 063°04'16 0.9
2017-Jan-14 03:32N 17°54' W 063°19'82 4.4
2017-Jan-13 09:05N 16°46' W 062°33'917.1
2017-Jan-13 08:33N 16°38' W 062°29'  
2017-Jan-09 23:10N 18°05' W 064°44'711.6
2017-Jan-09 22:34N 18°09' W 064°50'1110.8
2017-Jan-09 21:33N 18°19' W 064°55'1 0.1
2017-Jan-09 10:15N 18°18' W 064°55'  

Dump ship's entire track history